createdAt,value
2018-09-04T00:00:31.355Z,98018.67
2018-09-04T00:03:04.666Z,98019.85
2018-09-04T00:05:37.872Z,98018.80
2018-09-04T00:08:11.042Z,98018.38
2018-09-04T00:10:44.176Z,98025.14
2018-09-04T00:13:17.368Z,98026.20
2018-09-04T00:15:50.479Z,98023.52
2018-09-04T00:18:23.625Z,98021.73
2018-09-04T00:20:56.736Z,98023.78
2018-09-04T00:23:29.876Z,98025.72
2018-09-04T00:26:03.345Z,98017.22
2018-09-04T00:28:36.528Z,98022.45
2018-09-04T00:31:09.640Z,98017.98
2018-09-04T00:33:42.789Z,98016.58
2018-09-04T00:36:15.934Z,98011.65
2018-09-04T00:38:49.061Z,98014.41
2018-09-04T00:41:22.201Z,98017.72
2018-09-04T00:43:55.327Z,98020.41
2018-09-04T00:46:28.467Z,98024.16
2018-09-04T00:49:01.644Z,98021.39
2018-09-04T00:51:34.792Z,98023.02
2018-09-04T00:54:07.920Z,98023.86
2018-09-04T00:56:41.105Z,98017.64
2018-09-04T00:59:14.200Z,98020.94
2018-09-04T01:01:47.641Z,98018.63
2018-09-04T01:04:20.843Z,98025.72
2018-09-04T01:06:54.146Z,98021.51
2018-09-04T01:09:27.298Z,98016.35
2018-09-04T01:12:00.452Z,98019.12
2018-09-04T01:14:33.633Z,98022.16
2018-09-04T01:17:06.851Z,98021.31
2018-09-04T01:19:39.997Z,98027.38
2018-09-04T01:22:13.102Z,98024.08
2018-09-04T01:24:46.218Z,98024.08
2018-09-04T01:27:19.413Z,98026.13
2018-09-04T01:29:52.501Z,98029.70
2018-09-04T01:32:25.755Z,98029.77
2018-09-04T01:34:58.848Z,98028.83
2018-09-04T01:37:31.966Z,98030.42
2018-09-04T01:40:05.208Z,98022.80
2018-09-04T01:42:38.307Z,98029.96
2018-09-04T01:45:11.612Z,98036.86
2018-09-04T01:47:44.752Z,98031.52
2018-09-04T01:50:17.929Z,98036.97
2018-09-04T01:52:51.054Z,98029.34
2018-09-04T01:55:24.169Z,98035.25
2018-09-04T01:57:57.343Z,98028.43
2018-09-04T02:00:30.583Z,98031.66
2018-09-04T02:03:03.664Z,98036.16
2018-09-04T02:05:36.882Z,98037.59
2018-09-04T02:08:10.293Z,98029.33
2018-09-04T02:10:43.474Z,98028.88
2018-09-04T02:13:16.597Z,98023.27
2018-09-04T02:15:49.757Z,98022.99
2018-09-04T02:18:22.961Z,98027.98
2018-09-04T02:20:56.094Z,98023.20
2018-09-04T02:23:29.224Z,98023.25
2018-09-04T02:26:02.348Z,98019.92
2018-09-04T02:28:35.443Z,98010.72
2018-09-04T02:31:08.532Z,98013.22
2018-09-04T02:33:41.593Z,98009.67
2018-09-04T02:36:14.720Z,98011.95
2018-09-04T02:38:47.948Z,98012.41
2018-09-04T02:41:21.095Z,98017.33
2018-09-04T02:43:54.260Z,98022.02
2018-09-04T02:46:27.396Z,98016.13
2018-09-04T02:49:00.547Z,98020.53
2018-09-04T02:51:33.671Z,98017.30
2018-09-04T02:54:06.843Z,98020.37
2018-09-04T02:56:39.970Z,98023.73
2018-09-04T02:59:13.162Z,98018.71
2018-09-04T03:01:46.533Z,98020.95
2018-09-04T03:04:19.743Z,98027.68
2018-09-04T03:06:52.925Z,98027.56
2018-09-04T03:09:25.996Z,98027.89
2018-09-04T03:11:59.157Z,98016.72
2018-09-04T03:14:32.274Z,98019.87
2018-09-04T03:17:05.461Z,98019.53
2018-09-04T03:19:38.590Z,98020.00
2018-09-04T03:22:11.697Z,98024.23
2018-09-04T03:24:44.831Z,98025.78
2018-09-04T03:27:17.947Z,98026.19
2018-09-04T03:29:51.201Z,98026.31
2018-09-04T03:32:24.482Z,98030.72
2018-09-04T03:34:57.664Z,98031.38
2018-09-04T03:37:30.810Z,98033.20
2018-09-04T03:40:03.929Z,98034.70
2018-09-04T03:42:37.148Z,98026.44
2018-09-04T03:45:10.299Z,98025.98
2018-09-04T03:47:43.478Z,98020.07
2018-09-04T03:50:16.673Z,98030.30
2018-09-04T03:52:49.799Z,98025.22
2018-09-04T03:55:22.985Z,98030.38
2018-09-04T03:57:56.133Z,98030.05
2018-09-04T04:00:29.210Z,98032.54
2018-09-04T04:03:02.348Z,98028.00
2018-09-04T04:05:35.818Z,98028.92
2018-09-04T04:08:08.949Z,98028.92
2018-09-04T04:10:42.089Z,98034.48
2018-09-04T04:13:22.110Z,98029.75
2018-09-04T04:15:55.215Z,98032.11
2018-09-04T04:18:28.379Z,98032.27
2018-09-04T04:21:01.853Z,98035.56
2018-09-04T04:23:34.985Z,98040.92
2018-09-04T04:26:08.204Z,98038.31
2018-09-04T04:28:41.421Z,98033.00
2018-09-04T04:31:14.574Z,98032.88
2018-09-04T04:33:47.714Z,98030.67
2018-09-04T04:36:20.865Z,98034.67
2018-09-04T04:38:54.052Z,98039.07
2018-09-04T04:41:27.261Z,98043.14
2018-09-04T04:44:00.458Z,98039.77
2018-09-04T04:46:33.786Z,98034.96
2018-09-04T04:49:07.375Z,98028.23
2018-09-04T04:51:40.514Z,98038.20
2018-09-04T04:54:13.613Z,98046.75
2018-09-04T04:56:46.789Z,98060.05
2018-09-04T04:59:19.953Z,98060.84
2018-09-04T05:01:53.300Z,98062.75
2018-09-04T05:04:26.479Z,98064.12
2018-09-04T05:06:59.600Z,98070.56
2018-09-04T05:09:32.810Z,98069.27
2018-09-04T05:12:06.235Z,98078.41
2018-09-04T05:14:39.388Z,98081.57
2018-09-04T05:17:12.576Z,98083.69
2018-09-04T05:19:45.730Z,98084.36
2018-09-04T05:22:18.900Z,98094.86
2018-09-04T05:24:52.063Z,98091.16
2018-09-04T05:27:25.149Z,98094.77
2018-09-04T05:29:58.310Z,98080.53
2018-09-04T05:33:06.385Z,98082.41
2018-09-04T05:35:45.244Z,98079.20
2018-09-04T05:38:18.433Z,98087.30
2018-09-04T05:40:51.582Z,98089.05
2018-09-04T05:43:32.188Z,98095.16
2018-09-04T05:46:09.332Z,98104.09
2018-09-04T05:48:42.533Z,98099.52
2018-09-04T05:51:16.185Z,98098.77
2018-09-04T05:53:49.401Z,98099.14
2018-09-04T05:56:22.572Z,98107.00
2018-09-04T05:58:55.694Z,98108.91
2018-09-04T06:01:28.941Z,98104.80
2018-09-04T06:04:02.123Z,98109.83
2018-09-04T06:06:35.269Z,98108.16
2018-09-04T06:09:08.499Z,98105.61
2018-09-04T06:11:42.048Z,98107.14
2018-09-04T06:14:15.130Z,98098.70
2018-09-04T06:16:48.311Z,98107.62
2018-09-04T06:19:21.449Z,98107.58
2018-09-04T06:21:54.605Z,98105.15
2018-09-04T06:24:27.745Z,98109.13
2018-09-04T06:27:00.973Z,98104.97
2018-09-04T06:29:34.236Z,98107.96
2018-09-04T06:32:07.383Z,98105.20
2018-09-04T06:34:40.644Z,98103.58
2018-09-04T06:37:14.083Z,98109.61
2018-09-04T06:39:47.189Z,98110.44
2018-09-04T06:42:20.330Z,98115.83
2018-09-04T06:44:53.442Z,98119.86
2018-09-04T06:47:26.620Z,98120.98
2018-09-04T06:49:59.773Z,98122.09
2018-09-04T06:52:32.985Z,98121.27
2018-09-04T06:55:06.283Z,98128.02
2018-09-04T06:57:39.549Z,98125.14
2018-09-04T07:00:13.937Z,98124.72
2018-09-04T07:02:47.190Z,98127.16
2018-09-04T07:05:20.365Z,98125.09
2018-09-04T07:07:53.550Z,98122.56
2018-09-04T07:10:26.708Z,98127.61
2018-09-04T07:12:59.860Z,98121.88
2018-09-04T07:15:33.005Z,98124.69
2018-09-04T07:18:06.501Z,98122.41
2018-09-04T07:20:39.726Z,98122.67
2018-09-04T07:23:13.098Z,98127.95
2018-09-04T07:25:46.241Z,98125.44
2018-09-04T07:28:19.426Z,98125.73
2018-09-04T07:30:52.677Z,98125.61
2018-09-04T07:33:26.846Z,98124.19
2018-09-04T07:36:00.075Z,98132.16
2018-09-04T07:38:33.227Z,98132.11
2018-09-04T07:41:06.436Z,98126.85
2018-09-04T07:52:47.016Z,98113.47
2018-09-04T07:55:20.213Z,98110.98
2018-09-04T07:57:53.935Z,98110.11
2018-09-04T08:00:27.229Z,98108.66
2018-09-04T08:03:00.422Z,98104.04
2018-09-04T08:05:33.619Z,98100.13
2018-09-04T08:08:06.800Z,98104.63
2018-09-04T08:10:40.084Z,98106.36
2018-09-04T08:13:13.255Z,98100.34
2018-09-04T08:15:46.440Z,98099.30
2018-09-04T08:18:19.573Z,98096.45
2018-09-04T08:20:52.813Z,98100.84
2018-09-04T08:23:25.992Z,98110.36
2018-09-04T08:25:59.197Z,98107.14
2018-09-04T08:28:32.341Z,98106.97
2018-09-04T08:31:05.500Z,98109.55
2018-09-04T08:33:38.751Z,98111.45
2018-09-04T08:36:11.999Z,98108.47
2018-09-04T08:38:50.255Z,98113.13
2018-09-04T08:41:23.472Z,98110.45
2018-09-04T08:43:56.670Z,98116.62
2018-09-04T08:46:29.814Z,98108.88
2018-09-04T08:49:02.976Z,98109.08
2018-09-04T08:51:36.122Z,98111.75
2018-09-04T08:54:09.303Z,98111.70
2018-09-04T08:56:42.452Z,98110.21
2018-09-04T08:59:15.674Z,98104.56
2018-09-04T09:01:48.874Z,98098.56
2018-09-04T09:04:22.121Z,98094.09
2018-09-04T09:06:55.326Z,98092.38
2018-09-04T09:09:28.565Z,98090.56
2018-09-04T09:12:01.914Z,98091.59
2018-09-04T09:14:35.059Z,98088.94
2018-09-04T09:17:08.428Z,98080.05
2018-09-04T09:19:41.590Z,98085.74
2018-09-04T09:22:14.760Z,98086.84
2018-09-04T09:24:47.945Z,98074.17
2018-09-04T09:27:21.163Z,98071.51
2018-09-04T09:29:54.316Z,98068.84
2018-09-04T09:32:27.562Z,98064.97
2018-09-04T09:35:00.753Z,98068.91
2018-09-04T09:37:33.945Z,98072.52
2018-09-04T09:40:07.306Z,98077.55
2018-09-04T09:42:40.607Z,98079.00
2018-09-04T09:45:13.815Z,98076.53
2018-09-04T09:47:48.294Z,98079.61
2018-09-04T09:50:21.674Z,98084.02
2018-09-04T09:52:54.883Z,98082.94
2018-09-04T09:55:28.093Z,98076.73
2018-09-04T09:58:01.302Z,98073.58
2018-09-04T10:00:39.993Z,98068.68
2018-09-04T10:03:18.765Z,98060.91
2018-09-04T10:05:51.952Z,98068.77
2018-09-04T10:08:25.160Z,98071.22
2018-09-04T10:11:03.774Z,98073.53
2018-09-04T10:13:36.983Z,98071.05
2018-09-04T10:16:10.141Z,98073.50
2018-09-04T10:18:43.316Z,98072.63
2018-09-04T10:21:16.656Z,98073.94
2018-09-04T10:23:49.843Z,98070.36
2018-09-04T10:26:23.108Z,98062.81
2018-09-04T10:28:56.247Z,98062.83
2018-09-04T10:31:29.446Z,98055.42
2018-09-04T10:34:02.682Z,98055.66
2018-09-04T10:36:35.900Z,98045.84
2018-09-04T10:39:14.743Z,98039.17
2018-09-04T10:41:47.943Z,98040.68
2018-09-04T10:44:21.136Z,98045.02
2018-09-04T10:46:54.298Z,98043.80
2018-09-04T10:49:27.456Z,98046.20
2018-09-04T10:52:00.618Z,98052.95
2018-09-04T10:54:33.901Z,98045.97
2018-09-04T10:57:07.077Z,98046.97
2018-09-04T10:59:40.296Z,98052.01
2018-09-04T11:02:15.232Z,98050.19
2018-09-04T11:04:49.189Z,98047.45
2018-09-04T11:07:22.325Z,98048.28
2018-09-04T11:09:55.784Z,98051.25
2018-09-04T11:12:28.746Z,98046.87
2018-09-04T11:15:01.965Z,98051.72
2018-09-04T11:17:35.149Z,98040.11
2018-09-04T11:20:08.438Z,98039.33
2018-09-04T11:22:41.734Z,98034.08
2018-09-04T11:25:14.946Z,98034.98
2018-09-04T11:27:48.214Z,98033.68
2018-09-04T11:30:21.452Z,98037.66
2018-09-04T11:32:54.610Z,98027.96
2018-09-04T11:35:27.816Z,98030.53
2018-09-04T11:38:01.071Z,98040.87
2018-09-04T11:40:34.280Z,98032.66
2018-09-04T11:43:07.897Z,98035.02
2018-09-04T11:45:41.037Z,98030.02
2018-09-04T11:48:16.500Z,98023.17
2018-09-04T11:50:49.701Z,98022.47
2018-09-04T11:53:22.933Z,98017.29
2018-09-04T11:55:56.068Z,98018.13
2018-09-04T11:58:29.202Z,98013.25
2018-09-04T12:01:04.344Z,98021.66
2018-09-04T12:03:37.864Z,98024.89
2018-09-04T12:06:11.015Z,98025.03
2018-09-04T12:08:44.155Z,98026.34
2018-09-04T12:11:17.326Z,98030.00
2018-09-04T12:13:50.491Z,98027.08
2018-09-04T12:16:23.613Z,98029.67
2018-09-04T12:18:56.963Z,98019.18
2018-09-04T12:21:30.042Z,98018.87
2018-09-04T12:24:03.216Z,98014.09
2018-09-04T12:26:36.402Z,98017.47
2018-09-04T12:29:09.598Z,98012.25
2018-09-04T12:31:42.773Z,98008.64
2018-09-04T12:34:16.036Z,98010.97
2018-09-04T12:36:49.198Z,98012.27
2018-09-04T12:39:22.368Z,98007.05
2018-09-04T12:41:55.635Z,98012.83
2018-09-04T12:44:28.767Z,98008.52
2018-09-04T12:47:02.050Z,98010.33
2018-09-04T12:49:35.176Z,98015.63
2018-09-04T12:52:08.408Z,98012.72
2018-09-04T12:54:41.573Z,98015.30
2018-09-04T12:57:14.730Z,98010.94
2018-09-04T12:59:48.027Z,98011.66
2018-09-04T13:02:21.170Z,98015.62
2018-09-04T13:04:54.373Z,98014.27
2018-09-04T13:07:27.569Z,98015.14
2018-09-04T13:10:00.780Z,98019.09
2018-09-04T13:12:33.906Z,98019.95
2018-09-04T13:15:07.738Z,98019.94
2018-09-04T13:17:40.993Z,98016.41
2018-09-04T13:20:14.218Z,98015.03
2018-09-04T13:22:47.490Z,98016.64
2018-09-04T13:25:20.679Z,98020.05
2018-09-04T13:27:53.797Z,98019.98
2018-09-04T13:30:26.994Z,98019.09
2018-09-04T13:33:00.138Z,98013.84
2018-09-04T13:35:33.793Z,98015.93
2018-09-04T13:38:07.100Z,98016.38
2018-09-04T13:40:40.309Z,98015.47
2018-09-04T13:43:13.490Z,98011.94
2018-09-04T13:45:46.776Z,98011.50
2018-09-04T13:48:24.510Z,98007.94
2018-09-04T13:50:58.180Z,98006.20
2018-09-04T13:53:31.427Z,97994.91
2018-09-04T13:56:04.681Z,97996.70
2018-09-04T13:58:37.915Z,97998.95
2018-09-04T14:01:11.138Z,98006.91
2018-09-04T14:03:44.347Z,97997.83
2018-09-04T14:06:17.530Z,97999.11
2018-09-04T14:08:50.774Z,97992.67
2018-09-04T14:11:23.954Z,97988.28
2018-09-04T14:13:57.166Z,97989.20
2018-09-04T14:16:30.296Z,97987.09
2018-09-04T14:19:03.514Z,97987.94
2018-09-04T14:21:36.695Z,97992.75
2018-09-04T14:24:09.872Z,97991.08
2018-09-04T14:26:43.033Z,97986.71
2018-09-04T14:29:53.168Z,97986.66
2018-09-04T14:31:50.348Z,97988.37
2018-09-04T14:34:23.608Z,97983.13
2018-09-04T14:36:57.034Z,97984.77
2018-09-04T14:39:30.027Z,97979.98
2018-09-04T14:42:03.255Z,97978.70
2018-09-04T14:44:36.433Z,97980.00
2018-09-04T14:47:09.685Z,97982.22
2018-09-04T14:49:42.881Z,97983.48
2018-09-04T14:52:16.060Z,97974.34
2018-09-04T14:54:49.220Z,97975.77
2018-09-04T14:57:22.427Z,97978.31
2018-09-04T14:59:55.647Z,97978.80
2018-09-04T15:02:28.827Z,97979.20
2018-09-04T15:05:02.026Z,97984.83
2018-09-04T15:07:35.230Z,97976.20
2018-09-04T15:10:08.441Z,97980.84
2018-09-04T15:12:41.701Z,97982.20
2018-09-04T15:15:14.870Z,97983.89
2018-09-04T15:17:48.063Z,97976.91
2018-09-04T15:20:21.241Z,97976.38
2018-09-04T15:22:54.450Z,97970.75
2018-09-04T15:25:27.686Z,97968.97
2018-09-04T15:28:00.846Z,97974.16
2018-09-04T15:30:34.046Z,97967.69
2018-09-04T15:33:07.271Z,97983.05
2018-09-04T15:35:40.464Z,97978.23
2018-09-04T15:38:13.691Z,97981.64
2018-09-04T15:40:47.176Z,97975.91
2018-09-04T15:43:21.208Z,97979.55
2018-09-04T15:45:54.425Z,97986.38
2018-09-04T15:48:27.665Z,97986.81
2018-09-04T15:51:01.005Z,97985.12
2018-09-04T15:53:34.472Z,97985.48
2018-09-04T15:56:07.658Z,97989.85
2018-09-04T15:58:40.930Z,97983.77
2018-09-04T16:01:14.182Z,97983.73
2018-09-04T16:03:47.424Z,97985.09
2018-09-04T16:06:20.754Z,97983.48
2018-09-04T16:08:54.095Z,97986.11
2018-09-04T16:11:27.411Z,97987.39
2018-09-04T16:14:00.621Z,97983.94
2018-09-04T16:16:33.872Z,97983.06
2018-09-04T16:19:07.220Z,97992.20
2018-09-04T16:21:40.371Z,97991.33
2018-09-04T16:24:13.634Z,97988.65
2018-09-04T16:26:46.912Z,97992.08
2018-09-04T16:29:20.251Z,97985.55
2018-09-04T16:31:53.442Z,97989.47
2018-09-04T16:34:26.980Z,97992.48
2018-09-04T16:37:00.096Z,97986.41
2018-09-04T16:39:33.472Z,97982.05
2018-09-04T16:42:06.550Z,97985.50
2018-09-04T16:44:39.758Z,97988.14
2018-09-04T16:47:12.997Z,97983.31
2018-09-04T16:49:46.283Z,97989.77
2018-09-04T16:52:19.621Z,97988.39
2018-09-04T16:54:52.870Z,97990.07
2018-09-04T16:57:26.022Z,97987.81
2018-09-04T16:59:59.213Z,97992.06
2018-09-04T17:02:32.471Z,97994.61
2018-09-04T17:05:05.869Z,98000.59
2018-09-04T17:07:38.998Z,98002.23
2018-09-04T17:10:12.291Z,98004.73
2018-09-04T17:12:45.661Z,98009.41
2018-09-04T17:15:18.880Z,98013.23
2018-09-04T17:17:52.122Z,98010.13
2018-09-04T17:20:25.272Z,98007.92
2018-09-04T17:22:58.492Z,98014.39
2018-09-04T17:25:31.784Z,98007.80
2018-09-04T17:28:05.129Z,98014.59
2018-09-04T17:30:45.175Z,98017.05
2018-09-04T17:33:18.462Z,98022.13
2018-09-04T17:35:51.760Z,98027.64
2018-09-04T17:38:25.029Z,98028.02
2018-09-04T17:40:58.249Z,98027.84
2018-09-04T17:43:31.574Z,98028.27
2018-09-04T17:46:05.505Z,98024.28
2018-09-04T17:48:38.962Z,98033.73
2018-09-04T17:51:12.194Z,98041.45
2018-09-04T17:53:45.449Z,98040.00
2018-09-04T17:56:18.710Z,98043.77
2018-09-04T17:58:51.986Z,98051.86
2018-09-04T18:01:25.207Z,98055.66
2018-09-04T18:03:58.526Z,98054.58
2018-09-04T18:06:31.826Z,98052.69
2018-09-04T18:09:06.920Z,98054.30
2018-09-04T18:11:40.096Z,98056.30
2018-09-04T18:14:13.355Z,98055.64
2018-09-04T18:16:46.584Z,98062.46
2018-09-04T18:19:19.909Z,98069.22
2018-09-04T18:21:53.263Z,98072.50
2018-09-04T18:24:26.592Z,98074.56
2018-09-04T18:26:59.871Z,98077.03
2018-09-04T18:29:33.176Z,98082.90
2018-09-04T18:32:06.640Z,98080.13
2018-09-04T18:34:39.985Z,98082.28
2018-09-04T18:37:13.268Z,98085.56
2018-09-04T18:39:46.523Z,98088.39
2018-09-04T18:42:19.801Z,98092.20
2018-09-04T18:44:53.057Z,98093.31
2018-09-04T18:47:26.271Z,98097.01
2018-09-04T18:50:00.026Z,98099.83
2018-09-04T18:52:33.242Z,98103.58
2018-09-04T18:55:06.521Z,98096.52
2018-09-04T18:57:39.784Z,98098.86
2018-09-04T19:00:13.067Z,98109.16
2018-09-04T19:02:47.150Z,98115.22
2018-09-04T19:05:20.429Z,98112.77
2018-09-04T19:07:53.701Z,98110.09
2018-09-04T19:10:27.035Z,98118.37
2018-09-04T19:13:00.667Z,98116.63
2018-09-04T19:15:33.975Z,98117.48
2018-09-04T19:18:07.213Z,98113.94
2018-09-04T19:20:40.489Z,98112.58
2018-09-04T19:23:20.491Z,98124.00
2018-09-04T19:25:53.801Z,98125.41
2018-09-04T19:28:27.082Z,98127.95
2018-09-04T19:31:00.407Z,98122.83
2018-09-04T19:33:33.663Z,98126.55
2018-09-04T19:36:06.973Z,98129.86
2018-09-04T19:38:40.210Z,98137.04
2018-09-04T19:41:13.486Z,98134.88
2018-09-04T19:43:46.744Z,98134.03
2018-09-04T19:46:19.974Z,98131.23
2018-09-04T19:48:53.193Z,98127.94
2018-09-04T19:51:26.407Z,98127.84
2018-09-04T19:53:59.663Z,98129.44
2018-09-04T19:56:33.027Z,98128.97
2018-09-04T19:59:06.360Z,98133.48
2018-09-04T20:01:40.244Z,98135.14
2018-09-04T20:04:13.623Z,98136.83
2018-09-04T20:06:46.940Z,98129.69
2018-09-04T20:09:20.366Z,98135.65
2018-09-04T20:11:53.542Z,98136.85
2018-09-04T20:14:26.773Z,98135.05
2018-09-04T20:16:59.940Z,98135.47
2018-09-04T20:19:33.138Z,98138.80
2018-09-04T20:22:07.880Z,98135.28
2018-09-04T20:24:41.461Z,98137.45
2018-09-04T20:27:14.642Z,98137.00
2018-09-04T20:29:47.859Z,98132.24
2018-09-04T20:32:21.065Z,98132.33
2018-09-04T20:34:54.352Z,98132.63
2018-09-04T20:37:27.560Z,98138.46
2018-09-04T20:40:00.782Z,98140.69
2018-09-04T20:42:34.059Z,98139.34
2018-09-04T20:45:07.429Z,98139.39
2018-09-04T20:47:40.646Z,98143.22
2018-09-04T20:50:13.903Z,98139.92
2018-09-04T20:52:47.074Z,98140.77
2018-09-04T20:55:20.305Z,98141.22
2018-09-04T20:58:10.554Z,98141.55
2018-09-04T21:01:01.202Z,98142.77
2018-09-04T21:03:51.655Z,98143.19
2018-09-04T21:06:43.247Z,98149.47
2018-09-04T21:09:32.798Z,98148.02
2018-09-04T21:12:06.422Z,98155.31
2018-09-04T21:14:39.666Z,98148.75
2018-09-04T21:17:12.944Z,98158.06
2018-09-04T21:19:46.277Z,98156.57
2018-09-04T21:22:19.531Z,98147.09
2018-09-04T21:24:52.779Z,98147.09
2018-09-04T21:27:26.005Z,98142.02
2018-09-04T21:29:59.290Z,98147.47
2018-09-04T21:32:32.520Z,98148.83
2018-09-04T21:35:05.728Z,98148.73
2018-09-04T21:37:39.015Z,98149.95
2018-09-04T21:40:12.246Z,98150.07
2018-09-04T21:42:45.737Z,98153.42
2018-09-04T21:45:18.945Z,98152.45
2018-09-04T21:47:52.193Z,98157.77
2018-09-04T21:50:25.489Z,98151.76
2018-09-04T21:52:58.713Z,98157.66
2018-09-04T21:55:31.887Z,98161.01
2018-09-04T21:58:05.187Z,98159.37
2018-09-04T22:00:45.026Z,98160.23
2018-09-04T22:03:18.218Z,98161.84
2018-09-04T22:05:51.523Z,98161.08
2018-09-04T22:08:24.685Z,98166.00
2018-09-04T22:10:57.842Z,98158.04
2018-09-04T22:13:30.985Z,98161.88
2018-09-04T22:16:04.589Z,98155.00
2018-09-04T22:18:37.798Z,98163.31
2018-09-04T22:21:10.981Z,98158.56
2018-09-04T22:23:44.145Z,98157.58
2018-09-04T22:26:17.302Z,98158.00
2018-09-04T22:28:50.481Z,98156.19
2018-09-04T22:31:23.615Z,98156.31
2018-09-04T22:33:56.914Z,98159.62
2018-09-04T22:36:30.068Z,98156.75
2018-09-04T22:39:04.092Z,98156.23
2018-09-04T22:41:37.642Z,98160.69
2018-09-04T22:44:10.806Z,98163.23
2018-09-04T22:46:44.017Z,98156.47
2018-09-04T22:49:17.417Z,98166.45
2018-09-04T22:51:50.728Z,98164.86
2018-09-04T22:54:23.985Z,98165.28
2018-09-04T22:56:57.211Z,98155.19
2018-09-04T22:59:30.342Z,98157.42
2018-09-04T23:02:03.531Z,98153.74
2018-09-04T23:04:36.697Z,98161.64
2018-09-04T23:07:10.020Z,98164.64
2018-09-04T23:09:43.161Z,98158.00
2018-09-04T23:12:16.462Z,98159.82
2018-09-04T23:14:49.655Z,98166.43
2018-09-04T23:17:22.898Z,98162.14
2018-09-04T23:19:56.303Z,98163.20
2018-09-04T23:22:29.480Z,98160.39
2018-09-04T23:25:02.645Z,98164.61
2018-09-04T23:27:35.808Z,98153.76
2018-09-04T23:30:09.050Z,98160.81
2018-09-04T23:32:43.325Z,98157.74
2018-09-04T23:35:16.577Z,98160.33
2018-09-04T23:37:49.724Z,98155.05
2018-09-04T23:40:22.916Z,98157.73
2018-09-04T23:42:56.102Z,98160.58
2018-09-04T23:45:29.245Z,98159.09
2018-09-04T23:48:02.401Z,98151.77
2018-09-04T23:50:35.655Z,98164.54
2018-09-04T23:53:08.805Z,98154.44
2018-09-04T23:55:41.984Z,98156.59
2018-09-04T23:58:15.109Z,98154.13
